Lowell, Massachusetts
Current Conditions -  °F | °C
As of 5:54 AM on Friday 28 Nov 2014 (Local Time) from KLWM Reporting Station
Light Snow Light Snow  
Wind Chill: 19°   Ceiling: 4400
Heat Index: 27°   Visibility: 3mi
Dew Point: 24°   Wind: 7mph
Humidity: 89%   Direction: 350°N
Pressure: 30.04"   Gusts: NA
Location:  42.65°N, 71.31°W
Report Text: KLWM 281054Z AUTO 35006KT 3SM -SN BR SCT022 OVC044 M03/M04 A3004 RMK AO2 SLP173 P0001 T10281044
Loading
Personal Weather Stations






























Interactive Weather Map New forecast layout! Learn more

10-Day Weather Forecast

Advertisements
Track Severe Weather on mobile